Time;durP1;ratioP1;P1;durP2;ratioP2;P2;SDS_P1;SDS_P2;PMS_P1;PMS_P2;Temp;Humidity;BMP_temperature;BMP_pressure;BME280_temperature;BME280_humidity;BME280_pressure;Samples;Min_cycle;Max_cycle;Signal;HPM_P1;HPM_P2
2023/07/08 00:01:08;;;;;;;1.73;1.38;;;26.40;48.20;;;;;;4959425;28;20094;-77
2023/07/08 00:03:34;;;;;;;1.95;1.45;;;26.40;48.20;;;;;;4959270;28;20143;-77
2023/07/08 00:06:00;;;;;;;2.15;1.40;;;26.40;48.20;;;;;;4957876;28;20072;-77
2023/07/08 00:08:25;;;;;;;1.60;1.17;;;26.40;48.30;;;;;;4940854;28;20145;-77
2023/07/08 00:10:51;;;;;;;1.60;1.38;;;26.30;48.30;;;;;;4955815;29;20461;-77
2023/07/08 00:13:18;;;;;;;2.17;1.40;;;26.30;48.30;;;;;;4956011;29;20031;-76
2023/07/08 00:15:44;;;;;;;2.03;1.40;;;26.30;48.30;;;;;;4956326;29;20039;-77
2023/07/08 00:18:15;;;;;;;1.70;1.40;;;26.20;48.90;;;;;;4955632;29;20130;-77
2023/07/08 00:20:47;;;;;;;1.65;1.30;;;26.20;48.30;;;;;;4955554;28;20031;-77
2023/07/08 00:23:13;;;;;;;1.50;1.35;;;26.20;48.30;;;;;;4955723;29;20031;-77
2023/07/08 00:25:39;;;;;;;2.65;1.60;;;26.20;48.30;;;;;;4955818;29;20380;-77
2023/07/08 00:28:15;;;;;;;1.83;1.45;;;26.20;48.40;;;;;;4939759;29;20483;-77
2023/07/08 00:30:40;;;;;;;1.65;1.35;;;26.10;48.40;;;;;;4939875;28;20042;-76
2023/07/08 00:33:07;;;;;;;1.77;1.30;;;26.10;48.40;;;;;;4956789;28;20380;-77
2023/07/08 00:35:51;;;;;;;1.75;1.48;;;26.10;48.50;;;;;;4939371;29;20034;-77
2023/07/08 00:38:26;;;;;;;2.40;1.60;;;26.10;48.50;;;;;;4956122;29;20034;-77
2023/07/08 00:41:11;;;;;;;2.17;1.48;;;26.00;48.50;;;;;;4955442;28;20031;-76
2023/07/08 00:43:38;;;;;;;;;;;26.00;48.60;;;;;;4957356;29;20031;-76
2023/07/08 00:46:27;;;;;;;1.70;1.00;;;25.90;48.60;;;;;;4956825;28;19921;-78
2023/07/08 00:49:14;;;;;;;1.20;1.10;;;25.90;48.70;;;;;;4949937;28;20081;-76
2023/07/08 00:51:40;;;;;;;1.67;1.30;;;25.90;48.70;;;;;;4939444;29;20066;-77
2023/07/08 00:54:10;;;;;;;1.83;1.33;;;25.90;48.70;;;;;;4954939;29;20465;-78
2023/07/08 00:56:39;;;;;;;2.10;1.45;;;25.80;48.70;;;;;;4939457;28;20468;-77
2023/07/08 00:59:14;;;;;;;1.30;1.20;;;25.80;48.70;;;;;;4955670;29;20512;-77
2023/07/08 01:01:43;;;;;;;2.30;1.65;;;25.80;48.70;;;;;;4938942;28;20059;-76
2023/07/08 01:04:19;;;;;;;1.70;1.40;;;25.70;48.70;;;;;;4954831;29;20023;-78
2023/07/08 01:06:57;;;;;;;2.40;1.60;;;25.70;48.80;;;;;;4955208;29;20031;-76
2023/07/08 01:09:29;;;;;;;1.17;1.08;;;25.70;48.80;;;;;;4955011;29;20035;-76
2023/07/08 01:11:57;;;;;;;3.67;1.60;;;25.70;48.80;;;;;;4954336;28;20042;-76
2023/07/08 01:14:26;;;;;;;1.75;1.33;;;25.70;48.80;;;;;;4956057;28;20121;-77
2023/07/08 01:16:53;;;;;;;1.60;1.40;;;25.60;48.80;;;;;;4938612;29;20089;-77
2023/07/08 01:19:31;;;;;;;1.50;1.40;;;25.60;48.80;;;;;;4954898;29;20032;-76
2023/07/08 01:22:03;;;;;;;1.52;1.20;;;25.60;48.90;;;;;;4956195;28;20027;-78
2023/07/08 01:24:32;;;;;;;1.42;1.33;;;25.50;48.80;;;;;;4955365;28;20082;-76
2023/07/08 01:27:00;;;;;;;1.40;1.30;;;25.50;48.90;;;;;;4955885;29;20070;-76
2023/07/08 01:29:28;;;;;;;2.15;1.60;;;25.50;48.90;;;;;;4954869;29;20094;-76
2023/07/08 01:32:02;;;;;;;1.45;1.33;;;25.50;48.90;;;;;;4954527;28;20462;-80
2023/07/08 01:34:37;;;;;;;;;;;25.40;48.90;;;;;;4956029;29;20109;-77
2023/07/08 01:37:05;;;;;;;1.98;1.50;;;25.40;49.00;;;;;;4956217;28;19938;-77
2023/07/08 01:39:32;;;;;;;1.38;1.13;;;25.40;49.00;;;;;;4938305;29;20520;-77
2023/07/08 01:41:58;;;;;;;1.92;1.20;;;25.40;49.10;;;;;;4955940;28;20035;-78
2023/07/08 01:44:28;;;;;;;1.38;1.27;;;25.30;49.00;;;;;;4938388;29;20042;-79
2023/07/08 01:46:56;;;;;;;1.60;1.50;;;25.30;49.10;;;;;;4954183;29;20071;-77
2023/07/08 01:49:23;;;;;;;2.20;1.55;;;25.30;49.10;;;;;;4937859;29;20059;-76
2023/07/08 01:51:50;;;;;;;2.40;1.60;;;25.20;49.10;;;;;;4954429;29;20036;-77
2023/07/08 01:54:16;;;;;;;1.40;1.30;;;25.20;49.10;;;;;;4937978;29;20037;-76
2023/07/08 01:56:41;;;;;;;2.00;1.60;;;25.20;49.20;;;;;;4954080;29;20043;-77
2023/07/08 01:59:07;;;;;;;1.42;1.17;;;25.20;49.20;;;;;;4938262;29;20035;-78
2023/07/08 02:01:33;;;;;;;1.55;1.45;;;25.10;49.20;;;;;;4953769;28;20175;-77
2023/07/08 02:03:59;;;;;;;1.80;1.52;;;25.10;49.20;;;;;;4955425;28;20045;-75
2023/07/08 02:06:25;;;;;;;1.60;1.48;;;25.10;49.30;;;;;;4939177;28;20477;-77
2023/07/08 02:08:50;;;;;;;2.45;1.55;;;25.10;49.30;;;;;;4922346;29;20381;-77
2023/07/08 02:11:17;;;;;;;1.35;1.25;;;25.00;49.20;;;;;;4954339;29;20036;-77
2023/07/08 02:13:43;;;;;;;1.63;1.20;;;25.00;49.20;;;;;;4954090;29;20035;-77
2023/07/08 02:16:08;;;;;;;1.90;1.40;;;25.00;49.30;;;;;;4953719;29;20038;-78
2023/07/08 02:18:34;;;;;;;2.03;1.40;;;24.90;49.30;;;;;;4954238;29;20122;-76
2023/07/08 02:21:00;;;;;;;1.75;1.13;;;24.90;49.30;;;;;;4954028;29;20087;-76
2023/07/08 02:23:27;;;;;;;1.98;1.58;;;24.90;49.40;;;;;;4955730;29;20054;-78
2023/07/08 02:25:58;;;;;;;1.88;1.60;;;24.80;49.30;;;;;;4938570;28;20043;-77
2023/07/08 02:28:24;;;;;;;1.88;1.52;;;24.80;49.40;;;;;;4937622;28;20074;-77
2023/07/08 02:30:49;;;;;;;1.92;1.50;;;24.80;49.40;;;;;;4953850;29;20027;-77
2023/07/08 02:33:17;;;;;;;2.03;1.60;;;24.80;49.50;;;;;;4953622;29;20038;-77
2023/07/08 02:35:43;;;;;;;3.05;1.60;;;24.80;49.50;;;;;;4953995;29;20487;-78
2023/07/08 02:38:09;;;;;;;2.20;1.52;;;24.80;49.60;;;;;;4954947;28;20034;-77
2023/07/08 02:40:34;;;;;;;1.55;1.20;;;24.70;49.60;;;;;;4954365;29;20499;-77
2023/07/08 02:43:00;;;;;;;1.58;1.40;;;24.70;49.60;;;;;;4937691;29;20523;-77
2023/07/08 02:45:26;;;;;;;2.17;1.50;;;24.60;49.50;;;;;;4953440;29;20032;-77
2023/07/08 02:47:52;;;;;;;1.50;1.40;;;24.60;49.50;;;;;;4953877;29;20034;-78
2023/07/08 02:50:18;;;;;;;2.50;1.50;;;24.60;49.60;;;;;;4937809;29;20048;-78
2023/07/08 02:52:44;;;;;;;1.38;1.23;;;24.60;49.70;;;;;;4937634;28;20122;-77
2023/07/08 02:55:10;;;;;;;2.00;1.40;;;24.60;49.70;;;;;;4953759;29;20066;-76
2023/07/08 02:57:36;;;;;;;2.03;1.60;;;24.60;49.70;;;;;;4937487;28;20031;-77
2023/07/08 03:00:04;;;;;;;1.58;1.38;;;24.50;49.70;;;;;;4953510;29;20100;-77
2023/07/08 03:02:30;;;;;;;1.98;1.40;;;24.50;49.80;;;;;;4937136;29;20127;-77
2023/07/08 03:04:58;;;;;;;2.60;1.70;;;24.50;49.80;;;;;;4937514;29;20551;-79
2023/07/08 03:07:24;;;;;;;1.63;1.45;;;24.40;49.80;;;;;;4937480;29;20496;-78
2023/07/08 03:09:50;;;;;;;1.67;1.40;;;24.40;50.40;;;;;;4953427;29;20050;-77
2023/07/08 03:12:16;;;;;;;1.80;1.40;;;24.40;49.80;;;;;;4953231;28;20027;-77
2023/07/08 03:14:42;;;;;;;2.63;1.50;;;24.40;49.90;;;;;;4957795;28;20063;-78
2023/07/08 03:17:08;;;;;;;1.95;1.40;;;24.40;49.90;;;;;;4956566;29;20044;-78
2023/07/08 03:19:33;;;;;;;1.67;1.35;;;24.30;49.90;;;;;;4957036;29;20138;-76
2023/07/08 03:22:02;;;;;;;1.77;1.42;;;24.30;49.90;;;;;;4956816;29;20034;-80
2023/07/08 03:24:29;;;;;;;1.80;1.40;;;24.30;50.00;;;;;;4956936;29;20031;-77
2023/07/08 03:26:59;;;;;;;1.98;1.50;;;24.20;50.00;;;;;;4940980;29;20042;-77
2023/07/08 03:29:25;;;;;;;1.55;1.40;;;24.20;50.00;;;;;;4940212;28;20047;-77
2023/07/08 03:31:51;;;;;;;1.92;1.42;;;24.20;50.00;;;;;;4940311;28;20039;-78
2023/07/08 03:34:17;;;;;;;1.40;1.30;;;24.20;50.10;;;;;;4940951;29;20419;-80
2023/07/08 03:36:48;;;;;;;1.40;1.30;;;24.20;50.10;;;;;;4956529;28;20107;-78
2023/07/08 03:39:20;;;;;;;1.38;1.20;;;24.20;50.20;;;;;;4941021;29;20487;-77
2023/07/08 03:41:48;;;;;;;1.75;1.40;;;24.10;50.10;;;;;;4956555;29;20034;-76
2023/07/08 03:44:17;;;;;;;1.80;1.50;;;24.10;50.20;;;;;;4956338;29;20035;-78
2023/07/08 03:46:45;;;;;;;1.98;1.67;;;24.10;50.20;;;;;;4956732;28;20094;-77
2023/07/08 03:49:13;;;;;;;2.70;1.38;;;24.10;50.30;;;;;;4940342;29;20546;-80
2023/07/08 03:51:40;;;;;;;1.88;1.30;;;24.00;50.20;;;;;;4940119;28;20172;-77
2023/07/08 03:54:10;;;;;;;1.73;1.40;;;24.00;50.20;;;;;;4957603;28;20031;-78
2023/07/08 03:56:36;;;;;;;2.22;1.67;;;24.00;50.30;;;;;;4956283;29;20031;-76
2023/07/08 03:59:02;;;;;;;1.42;1.33;;;24.00;50.30;;;;;;4940734;29;20053;-78
2023/07/08 04:01:29;;;;;;;2.90;1.63;;;23.90;50.30;;;;;;4956198;29;20055;-77
2023/07/08 04:03:57;;;;;;;2.20;1.58;;;23.90;50.40;;;;;;4955937;29;20496;-77
2023/07/08 04:06:24;;;;;;;2.00;1.40;;;23.80;50.30;;;;;;4956194;29;20062;-76
2023/07/08 04:08:50;;;;;;;1.77;1.50;;;23.80;50.30;;;;;;4956162;28;20396;-77
2023/07/08 04:11:20;;;;;;;1.45;1.33;;;23.80;50.40;;;;;;4956444;29;20086;-76
2023/07/08 04:13:46;;;;;;;1.90;1.38;;;23.80;50.40;;;;;;4956912;29;20027;-77
2023/07/08 04:16:31;;;;;;;2.05;1.40;;;23.80;50.50;;;;;;4959411;29;20137;-76
2023/07/08 04:18:57;;;;;;;1.42;1.30;;;23.80;50.50;;;;;;4964666;28;20038;-76
2023/07/08 04:21:27;;;;;;;1.42;1.20;;;23.70;50.50;;;;;;4962835;29;20106;-78
2023/07/08 04:23:53;;;;;;;2.50;1.50;;;23.70;50.50;;;;;;4962509;28;20038;-77
2023/07/08 04:26:19;;;;;;;1.60;1.50;;;23.70;50.60;;;;;;4958857;29;20445;-76
2023/07/08 04:28:45;;;;;;;2.00;1.40;;;23.70;50.60;;;;;;4957526;29;20035;-77
2023/07/08 04:31:11;;;;;;;1.38;1.27;;;23.60;50.60;;;;;;4956938;28;20106;-76
2023/07/08 04:33:37;;;;;;;1.63;1.30;;;23.60;50.60;;;;;;4955821;29;20034;-76
2023/07/08 04:36:03;;;;;;;1.60;1.38;;;23.60;50.70;;;;;;4939709;29;20171;-76
2023/07/08 04:38:29;;;;;;;1.58;1.40;;;23.60;50.70;;;;;;4956471;28;20039;-75
2023/07/08 04:40:57;;;;;;;1.58;1.38;;;23.60;50.70;;;;;;4939270;29;20465;-77
2023/07/08 04:43:28;;;;;;;2.88;1.60;;;23.60;50.80;;;;;;4956948;28;20094;-76
2023/07/08 04:45:55;;;;;;;1.70;1.50;;;23.50;50.70;;;;;;4939795;29;20039;-77
2023/07/08 04:48:24;;;;;;;1.75;1.42;;;23.60;50.90;;;;;;4939409;29;20047;-76
2023/07/08 04:50:51;;;;;;;1.77;1.50;;;23.50;50.90;;;;;;4939644;28;20043;-76
2023/07/08 04:53:17;;;;;;;1.92;1.40;;;23.50;50.90;;;;;;4956246;28;20065;-76
2023/07/08 04:55:55;;;;;;;1.40;1.30;;;23.50;51.00;;;;;;4956121;29;20055;-76
2023/07/08 04:58:21;;;;;;;1.40;1.30;;;23.50;51.00;;;;;;4955544;29;20058;-76
2023/07/08 05:00:48;;;;;;;1.90;1.50;;;23.50;51.00;;;;;;4956012;28;20031;-76
2023/07/08 05:03:14;;;;;;;2.03;1.60;;;23.50;51.10;;;;;;4939478;29;20082;-75
2023/07/08 05:05:40;;;;;;;2.25;1.48;;;23.50;51.10;;;;;;4938827;28;20465;-76
2023/07/08 05:08:07;;;;;;;2.00;1.45;;;23.40;51.10;;;;;;4956072;28;20027;-76
2023/07/08 05:10:33;;;;;;;2.25;1.40;;;23.40;51.10;;;;;;4954932;29;20039;-76
2023/07/08 05:13:00;;;;;;;1.55;1.40;;;23.40;51.10;;;;;;4955315;29;20050;-76
2023/07/08 05:15:26;;;;;;;1.63;1.35;;;23.40;51.20;;;;;;4955825;28;20070;-79
2023/07/08 05:17:52;;;;;;;2.20;1.30;;;23.40;51.20;;;;;;4955590;28;20084;-77
2023/07/08 05:20:18;;;;;;;1.98;1.70;;;23.30;51.10;;;;;;4938537;28;20035;-76
2023/07/08 05:22:45;;;;;;;2.28;1.60;;;23.30;51.20;;;;;;4955688;28;20035;-76
2023/07/08 05:25:12;;;;;;;1.55;1.40;;;23.30;51.20;;;;;;4939015;29;20032;-77
2023/07/08 05:27:38;;;;;;;1.42;1.30;;;23.30;51.20;;;;;;4938643;29;20043;-77
2023/07/08 05:30:05;;;;;;;2.10;1.50;;;23.30;51.40;;;;;;4954482;28;20139;-77
2023/07/08 05:32:32;;;;;;;1.75;1.42;;;23.30;51.30;;;;;;4955551;28;20031;-77
2023/07/08 05:34:58;;;;;;;1.95;1.58;;;23.30;51.40;;;;;;4954281;28;20031;-76
2023/07/08 05:37:25;;;;;;;3.55;1.60;;;23.30;51.40;;;;;;4954166;29;20027;-78
2023/07/08 05:39:54;;;;;;;1.73;1.40;;;23.30;51.40;;;;;;4954627;29;20049;-76
2023/07/08 05:42:23;;;;;;;1.77;1.45;;;23.30;51.50;;;;;;4938260;29;20067;-76
2023/07/08 05:44:51;;;;;;;2.72;1.70;;;23.20;51.50;;;;;;4938310;29;20035;-77
2023/07/08 05:47:17;;;;;;;1.70;1.40;;;23.20;51.50;;;;;;4938422;29;20038;-77
2023/07/08 05:49:43;;;;;;;2.33;1.40;;;23.20;51.50;;;;;;4954516;29;20059;-76
2023/07/08 05:52:11;;;;;;;2.35;1.60;;;23.20;51.50;;;;;;4954125;29;20043;-79
2023/07/08 05:54:38;;;;;;;3.13;1.67;;;23.20;51.60;;;;;;4954487;29;20039;-76
2023/07/08 05:57:06;;;;;;;3.30;1.80;;;23.20;51.70;;;;;;4955975;28;20520;-76
2023/07/08 05:59:31;;;;;;;2.60;1.63;;;23.20;51.60;;;;;;4953992;29;20388;-77
2023/07/08 06:01:57;;;;;;;1.92;1.58;;;23.20;51.70;;;;;;4953973;29;20034;-77
2023/07/08 06:04:23;;;;;;;1.85;1.60;;;23.20;51.70;;;;;;4938993;28;20369;-77
2023/07/08 06:06:48;;;;;;;1.77;1.45;;;23.20;51.90;;;;;;4953842;29;20054;-76
2023/07/08 06:09:14;;;;;;;2.15;1.60;;;23.20;51.80;;;;;;4938222;29;20050;-76
2023/07/08 06:11:40;;;;;;;2.00;1.50;;;23.20;51.70;;;;;;4954428;29;20038;-76
2023/07/08 06:14:06;;;;;;;2.40;1.80;;;23.20;51.80;;;;;;4937985;29;20035;-76
2023/07/08 06:16:34;;;;;;;2.00;1.52;;;23.20;51.80;;;;;;4954432;29;20027;-77
2023/07/08 06:19:00;;;;;;;2.63;1.63;;;23.20;51.90;;;;;;4955234;28;20547;-77
2023/07/08 06:21:26;;;;;;;2.22;1.50;;;23.20;51.90;;;;;;4954004;29;20035;-78
2023/07/08 06:23:51;;;;;;;1.90;1.48;;;23.20;51.90;;;;;;4938610;28;20035;-77
2023/07/08 06:26:17;;;;;;;2.38;1.63;;;23.20;51.90;;;;;;4937966;28;20027;-76
2023/07/08 06:28:43;;;;;;;1.83;1.50;;;23.20;52.00;;;;;;4954745;28;20027;-77
2023/07/08 06:31:10;;;;;;;2.20;1.60;;;23.20;52.00;;;;;;4937770;29;20050;-77
2023/07/08 06:33:36;;;;;;;2.22;1.42;;;23.20;52.10;;;;;;4955255;28;20039;-77
2023/07/08 06:36:02;;;;;;;2.22;1.75;;;23.20;52.00;;;;;;4953958;29;20031;-79
2023/07/08 06:38:27;;;;;;;1.98;1.35;;;23.20;52.00;;;;;;4953792;29;20028;-77
2023/07/08 06:40:53;;;;;;;1.60;1.50;;;23.20;52.10;;;;;;4954333;29;20035;-77
2023/07/08 06:43:19;;;;;;;1.45;1.35;;;23.20;52.10;;;;;;4937768;29;20043;-78
2023/07/08 06:45:48;;;;;;;2.05;1.60;;;23.20;52.10;;;;;;4953224;29;20039;-78
2023/07/08 06:48:14;;;;;;;2.30;1.73;;;23.20;52.10;;;;;;4956563;28;20047;-78
2023/07/08 06:50:43;;;;;;;2.03;1.50;;;23.20;52.20;;;;;;4941354;28;20043;-80
2023/07/08 06:53:09;;;;;;;1.70;1.55;;;23.20;52.20;;;;;;4956940;29;20067;-77
2023/07/08 06:55:35;;;;;;;1.63;1.40;;;23.20;52.20;;;;;;4941240;29;20102;-79
2023/07/08 06:58:00;;;;;;;2.00;1.40;;;23.20;52.20;;;;;;4956854;29;20543;-77
2023/07/08 07:00:26;;;;;;;2.15;1.63;;;23.20;52.20;;;;;;4956978;29;20031;-77
2023/07/08 07:02:52;;;;;;;1.50;1.25;;;23.20;52.20;;;;;;4958673;28;20031;-77
2023/07/08 07:05:18;;;;;;;1.60;1.38;;;23.20;52.30;;;;;;4941410;28;20155;-78
2023/07/08 07:07:43;;;;;;;2.05;1.55;;;23.30;52.40;;;;;;4957070;29;20463;-77
2023/07/08 07:10:09;;;;;;;1.77;1.50;;;23.30;52.30;;;;;;4956990;29;20048;-76
2023/07/08 07:12:35;;;;;;;1.65;1.42;;;23.30;52.40;;;;;;4940977;29;20118;-78
2023/07/08 07:15:01;;;;;;;1.55;1.40;;;23.30;53.00;;;;;;4957358;29;20082;-76
2023/07/08 07:17:27;;;;;;;2.42;1.40;;;23.30;52.40;;;;;;4956905;29;20143;-79
2023/07/08 07:19:54;;;;;;;2.13;1.75;;;23.30;52.40;;;;;;4956800;29;20049;-77
2023/07/08 07:22:19;;;;;;;1.50;1.40;;;23.30;52.40;;;;;;4957160;28;20034;-76
2023/07/08 07:24:45;;;;;;;2.30;1.60;;;23.40;53.10;;;;;;4940700;28;20035;-76
2023/07/08 07:27:12;;;;;;;1.90;1.50;;;23.40;52.40;;;;;;4958203;28;20039;-77
2023/07/08 07:29:46;;;;;;;2.53;1.45;;;23.40;52.50;;;;;;4940908;29;20081;-77
2023/07/08 07:32:13;;;;;;;1.90;1.65;;;23.40;52.40;;;;;;4956655;29;20039;-77
2023/07/08 07:34:39;;;;;;;1.85;1.52;;;23.50;52.40;;;;;;4940718;29;20031;-77
2023/07/08 07:37:06;;;;;;;1.80;1.40;;;23.50;52.40;;;;;;4957522;28;20147;-76
2023/07/08 07:39:32;;;;;;;2.63;1.67;;;23.50;52.30;;;;;;4941030;29;20044;-77
2023/07/08 07:41:58;;;;;;;2.60;1.77;;;23.60;52.40;;;;;;4924712;29;20036;-77
2023/07/08 07:44:24;;;;;;;2.50;1.55;;;23.60;52.30;;;;;;4956522;29;20498;-78
2023/07/08 07:46:52;;;;;;;3.40;1.83;;;23.60;52.30;;;;;;4940544;29;20088;-77
2023/07/08 07:49:18;;;;;;;1.75;1.40;;;23.70;52.30;;;;;;4957534;28;20130;-77
2023/07/08 07:51:43;;;;;;;2.13;1.50;;;23.70;52.20;;;;;;4956096;29;20111;-77
2023/07/08 07:54:10;;;;;;;1.63;1.40;;;23.80;52.20;;;;;;4955931;29;20035;-77
2023/07/08 07:56:36;;;;;;;2.38;1.35;;;23.90;52.20;;;;;;4956843;29;20054;-76
2023/07/08 07:59:03;;;;;;;2.10;1.70;;;24.00;52.10;;;;;;4940312;28;20039;-77
2023/07/08 08:01:29;;;;;;;1.50;1.30;;;24.00;52.10;;;;;;4940236;29;20595;-78
2023/07/08 08:03:55;;;;;;;1.90;1.70;;;24.00;51.90;;;;;;4957220;28;20368;-77
2023/07/08 08:06:21;;;;;;;2.60;1.65;;;24.10;52.00;;;;;;4940217;29;20032;-75
2023/07/08 08:08:48;;;;;;;3.53;2.20;;;24.20;51.90;;;;;;4956062;29;20183;-74
2023/07/08 08:11:15;;;;;;;3.00;2.00;;;24.20;51.80;;;;;;4956224;28;20035;-76
2023/07/08 08:13:41;;;;;;;2.10;1.70;;;24.30;51.80;;;;;;4955695;29;20031;-77
2023/07/08 08:16:07;;;;;;;2.20;1.50;;;24.40;51.80;;;;;;4939894;29;20027;-78
2023/07/08 08:18:33;;;;;;;3.55;1.75;;;24.40;51.70;;;;;;4940340;29;20024;-78
2023/07/08 08:20:59;;;;;;;2.25;1.67;;;24.50;51.70;;;;;;4956013;29;20034;-80
2023/07/08 08:23:25;;;;;;;1.60;1.50;;;24.60;51.70;;;;;;4940602;29;20039;-79
2023/07/08 08:25:51;;;;;;;2.33;1.70;;;24.70;51.70;;;;;;4939505;29;20073;-79
2023/07/08 08:28:17;;;;;;;2.25;1.80;;;24.80;51.70;;;;;;4939848;29;20035;-78
2023/07/08 08:30:50;;;;;;;2.30;1.60;;;24.80;51.60;;;;;;4940327;29;20035;-79
2023/07/08 08:33:16;;;;;;;2.53;1.70;;;24.90;51.60;;;;;;4956419;28;20028;-77
2023/07/08 08:35:43;;;;;;;1.65;1.45;;;25.00;51.60;;;;;;4940213;29;20038;-80
2023/07/08 08:38:09;;;;;;;2.05;1.63;;;25.10;51.60;;;;;;4955600;28;20032;-77
2023/07/08 08:40:35;;;;;;;1.70;1.58;;;25.10;51.60;;;;;;4944355;28;20046;-77
2023/07/08 08:43:05;;;;;;;2.15;1.50;;;25.20;51.50;;;;;;4962722;28;20035;-77
2023/07/08 08:46:03;;;;;;;2.17;1.77;;;25.30;51.60;;;;;;4966753;28;20031;-78
2023/07/08 08:48:32;;;;;;;2.05;1.60;;;25.40;51.60;;;;;;4948224;29;20051;-76
2023/07/08 08:51:14;;;;;;;1.90;1.58;;;25.50;51.50;;;;;;4967707;28;20039;-76
2023/07/08 08:53:40;;;;;;;1.98;1.77;;;25.60;51.50;;;;;;4965299;28;20047;-77
2023/07/08 08:56:26;;;;;;;2.00;1.60;;;25.70;51.60;;;;;;4960405;28;20155;-78
2023/07/08 08:58:57;;;;;;;2.20;1.67;;;25.80;51.70;;;;;;4956994;28;20028;-79
2023/07/08 09:01:23;;;;;;;2.28;1.77;;;25.90;51.70;;;;;;4955702;29;20039;-79
2023/07/08 09:03:51;;;;;;;2.90;1.65;;;26.00;51.60;;;;;;4939160;29;20088;-78
2023/07/08 09:06:24;;;;;;;2.42;1.70;;;26.10;51.60;;;;;;4955061;28;20118;-78
2023/07/08 09:08:51;;;;;;;2.10;1.58;;;26.20;51.60;;;;;;4957106;28;20163;-78
2023/07/08 09:11:30;;;;;;;2.92;1.70;;;26.30;52.30;;;;;;4924138;29;20039;-78
2023/07/08 09:13:58;;;;;;;2.30;1.80;;;26.40;51.60;;;;;;4954688;29;20093;-77
2023/07/08 09:16:30;;;;;;;2.92;1.75;;;26.50;51.50;;;;;;4939008;29;20051;-78
2023/07/08 09:19:07;;;;;;;2.17;1.80;;;26.60;51.60;;;;;;4955102;29;20113;-78
2023/07/08 09:21:41;;;;;;;2.42;1.85;;;26.70;51.70;;;;;;4955296;28;20058;-78
2023/07/08 09:24:32;;;;;;;2.63;2.00;;;26.80;51.80;;;;;;4955883;28;20031;-78
2023/07/08 09:27:00;;;;;;;2.72;1.80;;;26.90;51.90;;;;;;4938082;29;20039;-79
2023/07/08 09:29:26;;;;;;;2.55;1.90;;;27.00;51.90;;;;;;4955445;29;20046;-79
2023/07/08 09:31:52;;;;;;;2.88;1.88;;;27.10;51.90;;;;;;4954526;29;20019;-79
2023/07/08 09:34:22;;;;;;;2.75;1.90;;;27.20;52.70;;;;;;4939160;29;20031;-79
2023/07/08 09:36:50;;;;;;;2.50;1.88;;;27.30;52.10;;;;;;4955373;29;20054;-79
2023/07/08 09:39:19;;;;;;;3.25;2.10;;;27.40;52.10;;;;;;4955445;28;20039;-78
2023/07/08 09:41:47;;;;;;;2.60;2.03;;;27.50;52.10;;;;;;4938629;28;20028;-78
2023/07/08 09:44:14;;;;;;;2.67;1.83;;;27.60;52.00;;;;;;4955314;29;20023;-77
2023/07/08 09:46:41;;;;;;;2.42;1.80;;;27.70;51.90;;;;;;4954407;28;20030;-80
2023/07/08 09:49:17;;;;;;;2.38;1.95;;;27.80;52.00;;;;;;4954469;29;20484;-79
2023/07/08 09:51:44;;;;;;;2.25;1.80;;;27.90;52.10;;;;;;4954540;28;20035;-79
2023/07/08 09:54:10;;;;;;;3.40;1.85;;;28.00;52.00;;;;;;4955193;28;20031;-78
2023/07/08 09:56:42;;;;;;;2.58;1.90;;;28.10;51.90;;;;;;4938417;29;20039;-79
2023/07/08 09:59:14;;;;;;;2.85;1.90;;;28.20;51.90;;;;;;4954220;28;20118;-78
2023/07/08 10:01:42;;;;;;;3.08;2.10;;;28.30;52.00;;;;;;4954000;29;20503;-79
2023/07/08 10:04:08;;;;;;;2.92;2.00;;;28.40;52.10;;;;;;4953946;28;20027;-81
2023/07/08 10:06:35;;;;;;;2.72;2.00;;;28.50;52.20;;;;;;4954281;29;20499;-79
2023/07/08 10:09:24;;;;;;;2.35;2.00;;;28.60;52.30;;;;;;4953937;29;20047;-78
2023/07/08 10:12:02;;;;;;;2.95;2.20;;;28.70;52.10;;;;;;4955019;29;20078;-80
2023/07/08 10:14:31;;;;;;;3.65;2.13;;;28.80;52.10;;;;;;4954672;29;20078;-78
2023/07/08 10:16:57;;;;;;;3.03;2.00;;;28.90;52.10;;;;;;4953818;29;20077;-79
2023/07/08 10:19:23;;;;;;;3.00;2.00;;;29.00;52.10;;;;;;4937807;29;20039;-78
2023/07/08 10:21:53;;;;;;;3.35;2.20;;;29.10;52.30;;;;;;4938268;28;20087;-80
2023/07/08 10:24:47;;;;;;;3.05;1.92;;;29.20;52.20;;;;;;4959182;28;20042;-79
2023/07/08 10:27:22;;;;;;;2.97;2.03;;;29.30;52.20;;;;;;4958014;29;20042;-79
2023/07/08 10:29:59;;;;;;;2.22;1.85;;;29.40;52.10;;;;;;4958906;28;20322;-80
2023/07/08 10:32:52;;;;;;;2.63;1.95;;;29.50;52.10;;;;;;4957816;29;20023;-79
2023/07/08 10:35:27;;;;;;;2.67;1.85;;;29.60;52.10;;;;;;4957832;29;20023;-80
2023/07/08 10:38:26;;;;;;;3.53;2.08;;;29.70;52.20;;;;;;4957629;29;20039;-79
2023/07/08 10:41:00;;;;;;;2.53;1.73;;;29.90;52.20;;;;;;4958080;29;20039;-80
2023/07/08 10:43:50;;;;;;;2.50;1.90;;;30.00;52.10;;;;;;4941957;29;20607;-78
2023/07/08 10:46:31;;;;;;;2.60;2.03;;;30.10;52.00;;;;;;4957979;29;20035;-79
2023/07/08 10:49:18;;;;;;;4.22;2.10;;;30.20;52.00;;;;;;4941392;29;20056;-78
2023/07/08 10:51:53;;;;;;;3.08;2.35;;;30.30;52.20;;;;;;4957468;28;20215;-78
2023/07/08 10:54:27;;;;;;;3.55;2.40;;;30.40;52.20;;;;;;4957389;29;20031;-78
2023/07/08 10:57:00;;;;;;;2.97;2.10;;;30.50;52.20;;;;;;4958690;28;20062;-78
2023/07/08 10:59:37;;;;;;;3.35;2.25;;;30.60;52.20;;;;;;4957742;29;20094;-79
2023/07/08 11:02:21;;;;;;;2.92;2.10;;;30.60;52.20;;;;;;4959118;28;20042;-78
2023/07/08 11:04:50;;;;;;;2.70;2.08;;;30.70;52.30;;;;;;4957335;29;20035;-79
2023/07/08 11:07:34;;;;;;;3.45;2.20;;;30.80;52.40;;;;;;4956973;29;20031;-78
2023/07/08 11:10:06;;;;;;;3.28;2.40;;;30.90;52.30;;;;;;4957420;28;20090;-79
2023/07/08 11:13:01;;;;;;;3.28;2.30;;;31.00;52.40;;;;;;4957156;28;20122;-78
2023/07/08 11:15:40;;;;;;;3.00;2.17;;;31.00;52.40;;;;;;4918721;29;20098;-80
2023/07/08 11:18:09;;;;;;;3.15;2.22;;;31.00;52.50;;;;;;4956933;29;20066;-80
2023/07/08 11:20:56;;;;;;;3.40;2.22;;;31.10;52.70;;;;;;4957023;29;20119;-82
2023/07/08 11:23:29;;;;;;;2.97;2.15;;;31.10;53.00;;;;;;4958238;28;20023;-86
2023/07/08 11:26:16;;;;;;;3.10;2.25;;;31.20;53.00;;;;;;4957210;28;20126;-81
2023/07/08 11:28:41;;;;;;;3.28;2.33;;;31.20;53.30;;;;;;4956643;29;20031;-80
2023/07/08 11:31:08;;;;;;;3.35;2.53;;;31.30;53.40;;;;;;4940708;28;20451;-81
2023/07/08 11:33:38;;;;;;;3.38;2.40;;;31.30;53.50;;;;;;4939704;28;20038;-80
2023/07/08 11:36:05;;;;;;;2.90;2.20;;;31.30;53.40;;;;;;4940907;28;20112;-82
2023/07/08 11:38:34;;;;;;;4.25;2.60;;;31.40;53.70;;;;;;4940657;29;20042;-80
2023/07/08 11:41:04;;;;;;;2.88;2.17;;;31.40;53.70;;;;;;4940755;29;20488;-84
2023/07/08 11:43:57;;;;;;;3.80;2.50;;;31.40;53.90;;;;;;4957591;29;20041;-80
2023/07/08 11:46:30;;;;;;;4.10;2.38;;;31.50;54.20;;;;;;4956030;28;20043;-81
2023/07/08 11:49:02;;;;;;;3.90;2.45;;;31.50;54.30;;;;;;4940362;28;20057;-79
2023/07/08 11:51:37;;;;;;;3.13;2.50;;;31.50;54.40;;;;;;4958116;28;20143;-79
2023/07/08 11:54:26;;;;;;;3.72;2.40;;;31.60;54.50;;;;;;4956644;28;20473;-80
2023/07/08 11:57:04;;;;;;;3.53;2.53;;;31.60;54.60;;;;;;4957183;29;20028;-79
2023/07/08 11:59:38;;;;;;;3.78;2.72;;;31.60;54.70;;;;;;4940647;29;20038;-80
2023/07/08 12:02:17;;;;;;;4.18;2.72;;;31.60;54.60;;;;;;4958301;28;20042;-80
2023/07/08 12:05:13;;;;;;;3.60;2.38;;;31.70;54.50;;;;;;4939932;29;20032;-80
2023/07/08 12:07:44;;;;;;;3.13;2.42;;;31.70;54.70;;;;;;4955951;29;20075;-79
2023/07/08 12:10:26;;;;;;;3.63;2.40;;;31.70;54.60;;;;;;4957313;28;20114;-79
2023/07/08 12:12:52;;;;;;;4.18;2.50;;;31.70;54.70;;;;;;4956296;28;20042;-77
2023/07/08 12:15:28;;;;;;;3.97;2.58;;;31.70;54.60;;;;;;4956966;28;20027;-78
2023/07/08 12:18:16;;;;;;;3.83;2.47;;;31.70;54.50;;;;;;4957307;28;20075;-79
2023/07/08 12:20:49;;;;;;;3.45;2.42;;;31.70;54.40;;;;;;4937658;29;20035;-79
2023/07/08 12:23:20;;;;;;;3.35;2.30;;;31.70;54.40;;;;;;4957426;28;20039;-79
2023/07/08 12:25:46;;;;;;;3.17;2.35;;;31.80;54.30;;;;;;4956310;29;20031;-78
2023/07/08 12:28:13;;;;;;;3.83;2.80;;;31.80;54.20;;;;;;4939614;29;20020;-78
2023/07/08 12:30:40;;;;;;;2.92;2.28;;;31.70;53.90;;;;;;4955497;28;20049;-78
2023/07/08 12:33:25;;;;;;;3.67;2.60;;;31.80;53.90;;;;;;4939475;29;20035;-79
2023/07/08 12:35:55;;;;;;;3.65;2.65;;;31.80;53.90;;;;;;4955897;28;20023;-78
2023/07/08 12:38:40;;;;;;;4.22;2.88;;;31.80;53.60;;;;;;4939545;28;20042;-78
2023/07/08 12:41:12;;;;;;;;;;;31.80;53.70;;;;;;4939975;29;20089;-78
2023/07/08 12:43:37;;;;;;;2.67;1.92;;;31.80;53.70;;;;;;4955380;29;19976;-78
2023/07/08 12:46:04;;;;;;;4.18;2.53;;;31.90;53.60;;;;;;4939275;29;20481;-79
2023/07/08 12:48:39;;;;;;;3.47;2.53;;;31.90;53.60;;;;;;4939344;29;20066;-78
2023/07/08 12:51:10;;;;;;;3.40;2.50;;;31.90;53.50;;;;;;4939660;29;20085;-78
2023/07/08 12:53:36;;;;;;;4.65;2.83;;;31.90;53.40;;;;;;4957625;28;20038;-79
2023/07/08 12:56:02;;;;;;;4.28;2.90;;;31.90;53.30;;;;;;4956276;29;20031;-78
2023/07/08 12:58:34;;;;;;;4.00;2.53;;;31.90;53.20;;;;;;4955743;29;20078;-79
2023/07/08 13:01:05;;;;;;;3.47;2.50;;;31.90;53.10;;;;;;4957538;28;20074;-78